sensor_id;sensor_type;location;lat;lon;timestamp;P1;durP1;ratioP1;P2;durP2;ratioP2
15616;SDS011;7908;51.688;7.130;2023-09-30T00:00:23;1649.00;;;999.90;;
15616;SDS011;7908;51.688;7.130;2023-09-30T00:02:52;1621.53;;;999.90;;
15616;SDS011;7908;51.688;7.130;2023-09-30T00:05:20;1579.63;;;999.90;;
15616;SDS011;7908;51.688;7.130;2023-09-30T00:07:50;1630.30;;;999.90;;
15616;SDS011;7908;51.688;7.130;2023-09-30T00:10:18;1639.00;;;999.90;;
15616;SDS011;7908;51.688;7.130;2023-09-30T00:12:47;1638.33;;;999.90;;
15616;SDS011;7908;51.688;7.130;2023-09-30T00:15:15;1596.70;;;999.90;;
15616;SDS011;7908;51.688;7.130;2023-09-30T00:17:44;1644.47;;;999.90;;
15616;SDS011;7908;51.688;7.130;2023-09-30T00:20:12;1641.33;;;999.90;;
15616;SDS011;7908;51.688;7.130;2023-09-30T00:22:42;1627.77;;;999.90;;
15616;SDS011;7908;51.688;7.130;2023-09-30T00:25:12;1632.70;;;999.90;;
15616;SDS011;7908;51.688;7.130;2023-09-30T00:27:41;1646.67;;;999.90;;
15616;SDS011;7908;51.688;7.130;2023-09-30T00:30:10;1655.40;;;999.90;;
15616;SDS011;7908;51.688;7.130;2023-09-30T00:32:39;1638.03;;;999.90;;
15616;SDS011;7908;51.688;7.130;2023-09-30T00:35:08;1642.20;;;999.90;;
15616;SDS011;7908;51.688;7.130;2023-09-30T00:37:38;1648.93;;;999.90;;
15616;SDS011;7908;51.688;7.130;2023-09-30T00:40:07;1640.60;;;999.90;;
15616;SDS011;7908;51.688;7.130;2023-09-30T00:42:40;1639.37;;;999.90;;
15616;SDS011;7908;51.688;7.130;2023-09-30T00:45:09;1632.07;;;999.90;;
15616;SDS011;7908;51.688;7.130;2023-09-30T00:47:38;1623.10;;;999.90;;
15616;SDS011;7908;51.688;7.130;2023-09-30T00:50:10;1613.57;;;999.90;;
15616;SDS011;7908;51.688;7.130;2023-09-30T00:52:40;1623.23;;;999.90;;
15616;SDS011;7908;51.688;7.130;2023-09-30T00:55:09;1623.70;;;999.90;;
15616;SDS011;7908;51.688;7.130;2023-09-30T00:57:39;1615.57;;;999.90;;
15616;SDS011;7908;51.688;7.130;2023-09-30T01:00:08;1604.23;;;999.90;;
15616;SDS011;7908;51.688;7.130;2023-09-30T01:02:39;1622.63;;;999.90;;
15616;SDS011;7908;51.688;7.130;2023-09-30T01:05:08;1621.93;;;999.90;;
15616;SDS011;7908;51.688;7.130;2023-09-30T01:07:37;1621.80;;;999.90;;
15616;SDS011;7908;51.688;7.130;2023-09-30T01:10:06;1168.73;;;993.87;;
15616;SDS011;7908;51.688;7.130;2023-09-30T01:12:35;1603.53;;;999.90;;
15616;SDS011;7908;51.688;7.130;2023-09-30T01:15:05;1595.80;;;999.90;;
15616;SDS011;7908;51.688;7.130;2023-09-30T01:17:35;1601.57;;;999.90;;
15616;SDS011;7908;51.688;7.130;2023-09-30T01:20:03;1594.80;;;999.90;;
15616;SDS011;7908;51.688;7.130;2023-09-30T01:22:36;1577.63;;;999.90;;
15616;SDS011;7908;51.688;7.130;2023-09-30T01:25:06;1595.90;;;999.90;;
15616;SDS011;7908;51.688;7.130;2023-09-30T01:27:36;1595.00;;;999.90;;
15616;SDS011;7908;51.688;7.130;2023-09-30T01:30:05;1620.57;;;999.90;;
15616;SDS011;7908;51.688;7.130;2023-09-30T01:32:37;1611.03;;;999.90;;
15616;SDS011;7908;51.688;7.130;2023-09-30T01:35:06;1615.00;;;999.90;;
15616;SDS011;7908;51.688;7.130;2023-09-30T01:37:37;1609.30;;;999.90;;
15616;SDS011;7908;51.688;7.130;2023-09-30T01:40:06;1617.87;;;999.90;;
15616;SDS011;7908;51.688;7.130;2023-09-30T01:42:38;1627.73;;;999.90;;
15616;SDS011;7908;51.688;7.130;2023-09-30T01:45:07;1617.23;;;999.90;;
15616;SDS011;7908;51.688;7.130;2023-09-30T01:47:36;1596.53;;;999.90;;
15616;SDS011;7908;51.688;7.130;2023-09-30T01:50:05;1603.10;;;999.90;;
15616;SDS011;7908;51.688;7.130;2023-09-30T01:52:35;1623.53;;;999.90;;
15616;SDS011;7908;51.688;7.130;2023-09-30T01:55:05;1604.80;;;999.90;;
15616;SDS011;7908;51.688;7.130;2023-09-30T01:57:33;1602.83;;;999.90;;
15616;SDS011;7908;51.688;7.130;2023-09-30T02:00:02;1624.53;;;999.90;;
15616;SDS011;7908;51.688;7.130;2023-09-30T02:02:36;1622.17;;;999.90;;
15616;SDS011;7908;51.688;7.130;2023-09-30T02:05:05;1601.37;;;999.90;;
15616;SDS011;7908;51.688;7.130;2023-09-30T02:07:36;1628.03;;;999.90;;
15616;SDS011;7908;51.688;7.130;2023-09-30T02:10:07;1620.20;;;999.90;;
15616;SDS011;7908;51.688;7.130;2023-09-30T02:12:36;1612.77;;;999.90;;
15616;SDS011;7908;51.688;7.130;2023-09-30T02:15:05;1622.83;;;999.90;;
15616;SDS011;7908;51.688;7.130;2023-09-30T02:17:34;1599.20;;;999.90;;
15616;SDS011;7908;51.688;7.130;2023-09-30T02:20:03;1585.57;;;999.90;;
15616;SDS011;7908;51.688;7.130;2023-09-30T02:22:34;1603.30;;;999.90;;
15616;SDS011;7908;51.688;7.130;2023-09-30T02:25:03;1594.53;;;999.90;;
15616;SDS011;7908;51.688;7.130;2023-09-30T02:27:35;1597.90;;;999.90;;
15616;SDS011;7908;51.688;7.130;2023-09-30T02:30:06;1605.93;;;999.90;;
15616;SDS011;7908;51.688;7.130;2023-09-30T02:32:36;1597.47;;;999.90;;
15616;SDS011;7908;51.688;7.130;2023-09-30T02:35:05;1600.30;;;999.90;;
15616;SDS011;7908;51.688;7.130;2023-09-30T02:37:34;1612.40;;;999.90;;
15616;SDS011;7908;51.688;7.130;2023-09-30T02:40:03;1609.53;;;999.90;;
15616;SDS011;7908;51.688;7.130;2023-09-30T02:42:38;1594.83;;;999.90;;
15616;SDS011;7908;51.688;7.130;2023-09-30T02:45:08;1593.43;;;999.90;;
15616;SDS011;7908;51.688;7.130;2023-09-30T02:47:39;1597.60;;;999.90;;
15616;SDS011;7908;51.688;7.130;2023-09-30T02:50:08;1612.20;;;999.90;;
15616;SDS011;7908;51.688;7.130;2023-09-30T02:52:38;1607.13;;;999.90;;
15616;SDS011;7908;51.688;7.130;2023-09-30T02:55:08;1617.63;;;999.90;;
15616;SDS011;7908;51.688;7.130;2023-09-30T02:57:38;1633.53;;;999.90;;
15616;SDS011;7908;51.688;7.130;2023-09-30T03:00:08;1614.73;;;999.90;;
15616;SDS011;7908;51.688;7.130;2023-09-30T03:02:51;1598.53;;;999.90;;
15616;SDS011;7908;51.688;7.130;2023-09-30T03:05:20;1616.50;;;999.90;;
15616;SDS011;7908;51.688;7.130;2023-09-30T03:07:50;1596.13;;;999.90;;
15616;SDS011;7908;51.688;7.130;2023-09-30T03:10:18;1623.97;;;999.90;;
15616;SDS011;7908;51.688;7.130;2023-09-30T03:12:52;1616.33;;;999.90;;
15616;SDS011;7908;51.688;7.130;2023-09-30T03:15:22;1615.63;;;999.90;;
15616;SDS011;7908;51.688;7.130;2023-09-30T03:17:51;1618.63;;;999.90;;
15616;SDS011;7908;51.688;7.130;2023-09-30T03:20:19;1613.83;;;999.90;;
15616;SDS011;7908;51.688;7.130;2023-09-30T03:22:48;1619.50;;;999.90;;
15616;SDS011;7908;51.688;7.130;2023-09-30T03:25:17;1624.97;;;999.90;;
15616;SDS011;7908;51.688;7.130;2023-09-30T03:27:47;1645.77;;;999.90;;
15616;SDS011;7908;51.688;7.130;2023-09-30T03:30:18;1626.17;;;999.90;;
15616;SDS011;7908;51.688;7.130;2023-09-30T03:32:47;1656.13;;;999.90;;
15616;SDS011;7908;51.688;7.130;2023-09-30T03:35:16;1643.83;;;999.90;;
15616;SDS011;7908;51.688;7.130;2023-09-30T03:37:45;1653.50;;;999.90;;
15616;SDS011;7908;51.688;7.130;2023-09-30T03:40:14;1610.50;;;999.90;;
15616;SDS011;7908;51.688;7.130;2023-09-30T03:42:47;1619.27;;;999.90;;
15616;SDS011;7908;51.688;7.130;2023-09-30T03:45:18;1613.67;;;999.90;;
15616;SDS011;7908;51.688;7.130;2023-09-30T03:47:48;1605.07;;;999.90;;
15616;SDS011;7908;51.688;7.130;2023-09-30T03:50:18;1602.33;;;999.90;;
15616;SDS011;7908;51.688;7.130;2023-09-30T03:52:50;1628.53;;;999.90;;
15616;SDS011;7908;51.688;7.130;2023-09-30T03:55:18;1622.83;;;999.90;;
15616;SDS011;7908;51.688;7.130;2023-09-30T03:57:48;1614.27;;;999.90;;
15616;SDS011;7908;51.688;7.130;2023-09-30T04:00:21;1620.73;;;999.90;;
15616;SDS011;7908;51.688;7.130;2023-09-30T04:02:50;769.00;;;614.63;;
15616;SDS011;7908;51.688;7.130;2023-09-30T04:05:24;784.93;;;629.87;;
15616;SDS011;7908;51.688;7.130;2023-09-30T04:07:56;821.03;;;660.20;;
15616;SDS011;7908;51.688;7.130;2023-09-30T04:10:24;833.40;;;671.17;;
15616;SDS011;7908;51.688;7.130;2023-09-30T04:12:54;865.07;;;690.70;;
15616;SDS011;7908;51.688;7.130;2023-09-30T04:15:24;883.03;;;704.53;;
15616;SDS011;7908;51.688;7.130;2023-09-30T04:17:52;611.50;;;496.60;;
15616;SDS011;7908;51.688;7.130;2023-09-30T04:20:21;869.77;;;702.43;;
15616;SDS011;7908;51.688;7.130;2023-09-30T04:22:55;855.53;;;689.63;;
15616;SDS011;7908;51.688;7.130;2023-09-30T04:25:24;875.20;;;699.07;;
15616;SDS011;7908;51.688;7.130;2023-09-30T04:27:53;898.70;;;711.33;;
15616;SDS011;7908;51.688;7.130;2023-09-30T04:30:21;904.30;;;716.87;;
15616;SDS011;7908;51.688;7.130;2023-09-30T04:32:51;909.60;;;719.17;;
15616;SDS011;7908;51.688;7.130;2023-09-30T04:35:21;939.53;;;750.83;;
15616;SDS011;7908;51.688;7.130;2023-09-30T04:37:51;943.20;;;748.17;;
15616;SDS011;7908;51.688;7.130;2023-09-30T04:40:20;942.43;;;739.90;;
15616;SDS011;7908;51.688;7.130;2023-09-30T04:42:48;959.70;;;762.07;;
15616;SDS011;7908;51.688;7.130;2023-09-30T04:45:17;949.77;;;746.97;;
15616;SDS011;7908;51.688;7.130;2023-09-30T04:47:48;963.47;;;760.40;;
15616;SDS011;7908;51.688;7.130;2023-09-30T04:50:18;1015.30;;;788.03;;
15616;SDS011;7908;51.688;7.130;2023-09-30T04:52:49;1046.77;;;807.90;;
15616;SDS011;7908;51.688;7.130;2023-09-30T04:55:18;1037.70;;;809.20;;
15616;SDS011;7908;51.688;7.130;2023-09-30T04:57:47;1053.10;;;816.53;;
15616;SDS011;7908;51.688;7.130;2023-09-30T05:00:17;1067.00;;;823.60;;
15616;SDS011;7908;51.688;7.130;2023-09-30T05:02:52;1106.67;;;854.33;;
15616;SDS011;7908;51.688;7.130;2023-09-30T05:05:24;1104.73;;;847.00;;
15616;SDS011;7908;51.688;7.130;2023-09-30T05:07:52;1109.30;;;848.53;;
15616;SDS011;7908;51.688;7.130;2023-09-30T05:10:21;1154.63;;;881.20;;
15616;SDS011;7908;51.688;7.130;2023-09-30T05:12:50;1170.33;;;884.03;;
15616;SDS011;7908;51.688;7.130;2023-09-30T05:15:21;1164.80;;;877.20;;
15616;SDS011;7908;51.688;7.130;2023-09-30T05:17:50;1223.10;;;910.23;;
15616;SDS011;7908;51.688;7.130;2023-09-30T05:20:18;1145.33;;;873.07;;
15616;SDS011;7908;51.688;7.130;2023-09-30T05:22:48;1067.23;;;820.03;;
15616;SDS011;7908;51.688;7.130;2023-09-30T05:25:16;1114.37;;;850.00;;
15616;SDS011;7908;51.688;7.130;2023-09-30T05:27:46;1113.03;;;856.47;;
15616;SDS011;7908;51.688;7.130;2023-09-30T05:30:15;1121.20;;;854.47;;
15616;SDS011;7908;51.688;7.130;2023-09-30T05:32:47;1237.37;;;939.30;;
15616;SDS011;7908;51.688;7.130;2023-09-30T05:35:19;1341.83;;;992.57;;
15616;SDS011;7908;51.688;7.130;2023-09-30T05:37:50;1034.13;;;802.30;;
15616;SDS011;7908;51.688;7.130;2023-09-30T05:40:19;1441.87;;;999.90;;
15616;SDS011;7908;51.688;7.130;2023-09-30T05:42:52;1549.77;;;999.90;;
15616;SDS011;7908;51.688;7.130;2023-09-30T05:45:21;1343.20;;;989.00;;
15616;SDS011;7908;51.688;7.130;2023-09-30T05:47:53;1488.83;;;999.90;;
15616;SDS011;7908;51.688;7.130;2023-09-30T05:50:23;1604.67;;;999.90;;
15616;SDS011;7908;51.688;7.130;2023-09-30T05:52:55;1547.17;;;999.90;;
15616;SDS011;7908;51.688;7.130;2023-09-30T05:55:25;1605.70;;;999.90;;
15616;SDS011;7908;51.688;7.130;2023-09-30T05:57:54;1615.83;;;999.90;;
15616;SDS011;7908;51.688;7.130;2023-09-30T06:00:23;1599.63;;;999.90;;
15616;SDS011;7908;51.688;7.130;2023-09-30T06:02:56;1622.20;;;999.90;;
15616;SDS011;7908;51.688;7.130;2023-09-30T06:05:25;1624.20;;;999.90;;
15616;SDS011;7908;51.688;7.130;2023-09-30T06:07:59;1621.90;;;999.90;;
15616;SDS011;7908;51.688;7.130;2023-09-30T06:10:31;1599.43;;;999.90;;
15616;SDS011;7908;51.688;7.130;2023-09-30T06:12:59;1619.53;;;999.90;;
15616;SDS011;7908;51.688;7.130;2023-09-30T06:15:29;1115.43;;;973.53;;
15616;SDS011;7908;51.688;7.130;2023-09-30T06:17:58;1629.40;;;999.90;;
15616;SDS011;7908;51.688;7.130;2023-09-30T06:20:27;1621.37;;;999.90;;
15616;SDS011;7908;51.688;7.130;2023-09-30T06:22:59;997.03;;;886.00;;
15616;SDS011;7908;51.688;7.130;2023-09-30T06:25:29;1419.00;;;999.90;;
15616;SDS011;7908;51.688;7.130;2023-09-30T06:27:59;1602.37;;;999.90;;
15616;SDS011;7908;51.688;7.130;2023-09-30T06:30:30;1490.77;;;999.90;;
15616;SDS011;7908;51.688;7.130;2023-09-30T06:33:01;1301.20;;;999.90;;
15616;SDS011;7908;51.688;7.130;2023-09-30T06:35:32;1136.77;;;992.87;;
15616;SDS011;7908;51.688;7.130;2023-09-30T06:38:06;1343.00;;;999.90;;
15616;SDS011;7908;51.688;7.130;2023-09-30T06:40:38;1643.20;;;999.90;;
15616;SDS011;7908;51.688;7.130;2023-09-30T06:43:12;18.33;;;9.17;;
15616;SDS011;7908;51.688;7.130;2023-09-30T06:45:47;19.40;;;10.13;;
15616;SDS011;7908;51.688;7.130;2023-09-30T06:48:19;16.10;;;9.30;;
15616;SDS011;7908;51.688;7.130;2023-09-30T06:50:48;19.80;;;9.97;;
15616;SDS011;7908;51.688;7.130;2023-09-30T06:53:20;16.10;;;9.33;;
15616;SDS011;7908;51.688;7.130;2023-09-30T06:55:50;18.17;;;8.83;;
15616;SDS011;7908;51.688;7.130;2023-09-30T06:58:22;23.13;;;16.57;;
15616;SDS011;7908;51.688;7.130;2023-09-30T07:00:56;19.03;;;10.00;;
15616;SDS011;7908;51.688;7.130;2023-09-30T07:03:27;19.23;;;10.50;;
15616;SDS011;7908;51.688;7.130;2023-09-30T07:05:58;19.27;;;10.03;;
15616;SDS011;7908;51.688;7.130;2023-09-30T07:08:34;22.47;;;11.80;;
15616;SDS011;7908;51.688;7.130;2023-09-30T07:11:03;18.93;;;10.70;;
15616;SDS011;7908;51.688;7.130;2023-09-30T07:13:37;25.63;;;13.17;;
15616;SDS011;7908;51.688;7.130;2023-09-30T07:16:06;24.27;;;12.40;;
15616;SDS011;7908;51.688;7.130;2023-09-30T07:18:35;24.67;;;15.60;;
15616;SDS011;7908;51.688;7.130;2023-09-30T07:21:04;24.97;;;12.90;;
15616;SDS011;7908;51.688;7.130;2023-09-30T07:23:36;22.80;;;13.00;;
15616;SDS011;7908;51.688;7.130;2023-09-30T07:26:05;24.50;;;10.80;;
15616;SDS011;7908;51.688;7.130;2023-09-30T07:28:37;25.00;;;11.43;;
15616;SDS011;7908;51.688;7.130;2023-09-30T07:31:08;22.43;;;12.77;;
15616;SDS011;7908;51.688;7.130;2023-09-30T07:33:41;24.70;;;15.20;;
15616;SDS011;7908;51.688;7.130;2023-09-30T07:36:13;32.33;;;16.67;;
15616;SDS011;7908;51.688;7.130;2023-09-30T07:38:44;42.83;;;23.57;;
15616;SDS011;7908;51.688;7.130;2023-09-30T07:41:17;43.70;;;25.20;;
15616;SDS011;7908;51.688;7.130;2023-09-30T07:43:46;44.47;;;22.57;;
15616;SDS011;7908;51.688;7.130;2023-09-30T07:46:17;41.60;;;22.53;;
15616;SDS011;7908;51.688;7.130;2023-09-30T07:48:46;38.80;;;21.23;;
15616;SDS011;7908;51.688;7.130;2023-09-30T07:51:18;44.60;;;22.13;;
15616;SDS011;7908;51.688;7.130;2023-09-30T07:53:49;129.60;;;99.50;;
15616;SDS011;7908;51.688;7.130;2023-09-30T07:56:19;485.20;;;428.87;;
15616;SDS011;7908;51.688;7.130;2023-09-30T07:58:53;353.10;;;313.40;;
15616;SDS011;7908;51.688;7.130;2023-09-30T08:01:22;387.13;;;335.87;;
15616;SDS011;7908;51.688;7.130;2023-09-30T08:03:51;273.73;;;244.43;;
15616;SDS011;7908;51.688;7.130;2023-09-30T08:06:23;821.90;;;689.57;;
15616;SDS011;7908;51.688;7.130;2023-09-30T08:08:53;780.63;;;612.40;;
15616;SDS011;7908;51.688;7.130;2023-09-30T08:11:26;879.60;;;740.27;;
15616;SDS011;7908;51.688;7.130;2023-09-30T08:13:57;889.17;;;743.90;;
15616;SDS011;7908;51.688;7.130;2023-09-30T08:16:31;242.50;;;198.10;;
15616;SDS011;7908;51.688;7.130;2023-09-30T08:19:00;495.00;;;386.17;;
15616;SDS011;7908;51.688;7.130;2023-09-30T08:21:36;1012.23;;;837.73;;
15616;SDS011;7908;51.688;7.130;2023-09-30T08:24:10;1245.03;;;995.37;;
15616;SDS011;7908;51.688;7.130;2023-09-30T08:26:45;1518.17;;;999.90;;
15616;SDS011;7908;51.688;7.130;2023-09-30T08:29:15;1372.07;;;999.90;;
15616;SDS011;7908;51.688;7.130;2023-09-30T08:31:47;1527.50;;;999.90;;
15616;SDS011;7908;51.688;7.130;2023-09-30T08:34:18;1327.27;;;999.90;;
15616;SDS011;7908;51.688;7.130;2023-09-30T08:36:53;1264.47;;;999.90;;
15616;SDS011;7908;51.688;7.130;2023-09-30T08:39:28;1534.70;;;999.90;;
15616;SDS011;7908;51.688;7.130;2023-09-30T08:42:03;1526.30;;;999.90;;
15616;SDS011;7908;51.688;7.130;2023-09-30T08:44:41;1517.60;;;999.90;;
15616;SDS011;7908;51.688;7.130;2023-09-30T08:47:13;1520.10;;;999.90;;
15616;SDS011;7908;51.688;7.130;2023-09-30T08:49:44;1513.50;;;999.90;;
15616;SDS011;7908;51.688;7.130;2023-09-30T08:52:22;1518.00;;;999.90;;
15616;SDS011;7908;51.688;7.130;2023-09-30T08:54:55;1498.90;;;999.90;;
15616;SDS011;7908;51.688;7.130;2023-09-30T08:57:28;1498.03;;;999.90;;
15616;SDS011;7908;51.688;7.130;2023-09-30T09:00:02;1496.23;;;999.90;;
15616;SDS011;7908;51.688;7.130;2023-09-30T09:02:40;1491.87;;;999.90;;
15616;SDS011;7908;51.688;7.130;2023-09-30T09:05:21;1512.23;;;999.90;;
15616;SDS011;7908;51.688;7.130;2023-09-30T09:07:59;1511.07;;;999.90;;
15616;SDS011;7908;51.688;7.130;2023-09-30T09:10:33;1501.07;;;999.90;;
15616;SDS011;7908;51.688;7.130;2023-09-30T09:13:04;1511.77;;;999.90;;
15616;SDS011;7908;51.688;7.130;2023-09-30T09:15:35;1503.37;;;999.90;;
15616;SDS011;7908;51.688;7.130;2023-09-30T09:18:05;1520.27;;;999.90;;
15616;SDS011;7908;51.688;7.130;2023-09-30T09:20:44;1511.23;;;999.90;;
15616;SDS011;7908;51.688;7.130;2023-09-30T09:23:15;1508.47;;;999.90;;
15616;SDS011;7908;51.688;7.130;2023-09-30T09:25:57;1444.27;;;999.90;;
15616;SDS011;7908;51.688;7.130;2023-09-30T09:28:33;1511.27;;;999.90;;
15616;SDS011;7908;51.688;7.130;2023-09-30T09:31:23;1485.60;;;999.90;;
15616;SDS011;7908;51.688;7.130;2023-09-30T09:33:58;1499.57;;;999.90;;
15616;SDS011;7908;51.688;7.130;2023-09-30T09:36:37;1514.30;;;999.90;;
15616;SDS011;7908;51.688;7.130;2023-09-30T09:39:13;1512.40;;;999.90;;
15616;SDS011;7908;51.688;7.130;2023-09-30T09:41:52;1499.03;;;999.90;;
15616;SDS011;7908;51.688;7.130;2023-09-30T09:44:25;1505.27;;;999.90;;
15616;SDS011;7908;51.688;7.130;2023-09-30T09:46:59;1504.90;;;999.90;;
15616;SDS011;7908;51.688;7.130;2023-09-30T09:49:33;1487.73;;;999.90;;
15616;SDS011;7908;51.688;7.130;2023-09-30T09:52:03;1486.77;;;999.90;;
15616;SDS011;7908;51.688;7.130;2023-09-30T09:54:36;1487.37;;;999.90;;
15616;SDS011;7908;51.688;7.130;2023-09-30T09:57:18;1492.60;;;999.90;;
15616;SDS011;7908;51.688;7.130;2023-09-30T09:59:52;1493.37;;;999.90;;
15616;SDS011;7908;51.688;7.130;2023-09-30T10:02:25;1495.13;;;999.90;;
15616;SDS011;7908;51.688;7.130;2023-09-30T10:04:57;1513.03;;;999.90;;
15616;SDS011;7908;51.688;7.130;2023-09-30T10:07:43;1488.87;;;999.90;;
15616;SDS011;7908;51.688;7.130;2023-09-30T10:10:25;1499.37;;;999.90;;
15616;SDS011;7908;51.688;7.130;2023-09-30T10:19:23;1502.30;;;999.90;;
15616;SDS011;7908;51.688;7.130;2023-09-30T10:22:20;1505.57;;;999.90;;
15616;SDS011;7908;51.688;7.130;2023-09-30T10:24:55;1491.33;;;999.90;;
15616;SDS011;7908;51.688;7.130;2023-09-30T10:27:32;1500.77;;;999.90;;
15616;SDS011;7908;51.688;7.130;2023-09-30T10:30:13;1494.83;;;999.90;;
15616;SDS011;7908;51.688;7.130;2023-09-30T10:35:49;1499.40;;;999.90;;
15616;SDS011;7908;51.688;7.130;2023-09-30T10:38:36;1486.80;;;999.90;;
15616;SDS011;7908;51.688;7.130;2023-09-30T10:41:14;1482.13;;;999.90;;
15616;SDS011;7908;51.688;7.130;2023-09-30T10:44:32;1453.00;;;999.90;;
15616;SDS011;7908;51.688;7.130;2023-09-30T10:50:48;1461.93;;;999.90;;
15616;SDS011;7908;51.688;7.130;2023-09-30T10:53:22;1451.27;;;999.90;;
15616;SDS011;7908;51.688;7.130;2023-09-30T10:55:53;1454.30;;;999.90;;
15616;SDS011;7908;51.688;7.130;2023-09-30T10:58:38;1445.73;;;999.90;;
15616;SDS011;7908;51.688;7.130;2023-09-30T11:01:10;1449.67;;;999.90;;
15616;SDS011;7908;51.688;7.130;2023-09-30T11:03:42;1430.23;;;999.90;;
15616;SDS011;7908;51.688;7.130;2023-09-30T11:06:22;1433.73;;;999.90;;
15616;SDS011;7908;51.688;7.130;2023-09-30T11:08:54;1390.30;;;999.90;;
15616;SDS011;7908;51.688;7.130;2023-09-30T11:11:34;1392.13;;;999.90;;
15616;SDS011;7908;51.688;7.130;2023-09-30T11:14:18;1421.03;;;999.90;;
15616;SDS011;7908;51.688;7.130;2023-09-30T11:16:56;1435.47;;;999.90;;
15616;SDS011;7908;51.688;7.130;2023-09-30T11:19:36;1426.57;;;999.90;;
15616;SDS011;7908;51.688;7.130;2023-09-30T11:22:15;1427.30;;;999.90;;
15616;SDS011;7908;51.688;7.130;2023-09-30T11:24:46;1414.70;;;999.90;;
15616;SDS011;7908;51.688;7.130;2023-09-30T11:27:23;1426.70;;;999.90;;
15616;SDS011;7908;51.688;7.130;2023-09-30T11:29:54;1422.20;;;999.90;;
15616;SDS011;7908;51.688;7.130;2023-09-30T11:32:27;1438.03;;;999.90;;
15616;SDS011;7908;51.688;7.130;2023-09-30T11:35:00;1449.63;;;999.90;;
15616;SDS011;7908;51.688;7.130;2023-09-30T11:37:33;1452.10;;;999.90;;
15616;SDS011;7908;51.688;7.130;2023-09-30T11:40:10;1470.70;;;999.90;;
15616;SDS011;7908;51.688;7.130;2023-09-30T11:45:41;1476.13;;;999.90;;
15616;SDS011;7908;51.688;7.130;2023-09-30T11:48:19;1466.70;;;999.90;;
15616;SDS011;7908;51.688;7.130;2023-09-30T11:50:49;1465.60;;;999.90;;
15616;SDS011;7908;51.688;7.130;2023-09-30T11:53:23;1468.93;;;999.90;;
15616;SDS011;7908;51.688;7.130;2023-09-30T11:55:53;1458.50;;;999.90;;
15616;SDS011;7908;51.688;7.130;2023-09-30T11:58:29;1457.77;;;999.90;;
15616;SDS011;7908;51.688;7.130;2023-09-30T12:01:03;1453.57;;;999.90;;
15616;SDS011;7908;51.688;7.130;2023-09-30T12:03:42;1457.30;;;999.90;;
15616;SDS011;7908;51.688;7.130;2023-09-30T12:06:14;1459.17;;;999.90;;
15616;SDS011;7908;51.688;7.130;2023-09-30T12:08:49;1443.30;;;999.90;;
15616;SDS011;7908;51.688;7.130;2023-09-30T12:11:22;1418.87;;;999.90;;
15616;SDS011;7908;51.688;7.130;2023-09-30T12:13:53;1421.77;;;999.90;;
15616;SDS011;7908;51.688;7.130;2023-09-30T12:16:30;1420.23;;;999.90;;
15616;SDS011;7908;51.688;7.130;2023-09-30T12:18:59;1404.97;;;999.90;;
15616;SDS011;7908;51.688;7.130;2023-09-30T12:21:32;1398.57;;;999.90;;
15616;SDS011;7908;51.688;7.130;2023-09-30T12:24:08;1370.17;;;999.90;;
15616;SDS011;7908;51.688;7.130;2023-09-30T12:26:57;1376.43;;;999.90;;
15616;SDS011;7908;51.688;7.130;2023-09-30T12:29:33;1352.60;;;999.90;;
15616;SDS011;7908;51.688;7.130;2023-09-30T12:32:05;1258.47;;;999.90;;
15616;SDS011;7908;51.688;7.130;2023-09-30T12:34:38;1374.53;;;999.90;;
15616;SDS011;7908;51.688;7.130;2023-09-30T12:37:07;1380.33;;;999.90;;
15616;SDS011;7908;51.688;7.130;2023-09-30T12:39:38;1392.67;;;999.90;;
15616;SDS011;7908;51.688;7.130;2023-09-30T12:42:15;1377.83;;;999.90;;
15616;SDS011;7908;51.688;7.130;2023-09-30T12:44:45;1409.43;;;999.90;;
15616;SDS011;7908;51.688;7.130;2023-09-30T12:47:16;1361.50;;;999.90;;
15616;SDS011;7908;51.688;7.130;2023-09-30T12:49:52;1350.53;;;999.90;;
15616;SDS011;7908;51.688;7.130;2023-09-30T12:52:24;1352.37;;;999.90;;
15616;SDS011;7908;51.688;7.130;2023-09-30T12:55:06;1275.33;;;999.90;;
15616;SDS011;7908;51.688;7.130;2023-09-30T12:57:46;1329.70;;;999.90;;
15616;SDS011;7908;51.688;7.130;2023-09-30T13:00:21;1317.40;;;999.90;;
15616;SDS011;7908;51.688;7.130;2023-09-30T13:02:52;1379.50;;;999.90;;
15616;SDS011;7908;51.688;7.130;2023-09-30T13:05:29;1363.60;;;999.90;;
15616;SDS011;7908;51.688;7.130;2023-09-30T13:08:07;1402.87;;;999.90;;
15616;SDS011;7908;51.688;7.130;2023-09-30T13:10:58;1413.70;;;999.90;;
15616;SDS011;7908;51.688;7.130;2023-09-30T13:13:31;1428.43;;;999.90;;
15616;SDS011;7908;51.688;7.130;2023-09-30T13:16:09;1407.27;;;999.90;;
15616;SDS011;7908;51.688;7.130;2023-09-30T13:18:43;1408.77;;;999.90;;
15616;SDS011;7908;51.688;7.130;2023-09-30T13:21:13;1427.33;;;999.90;;
15616;SDS011;7908;51.688;7.130;2023-09-30T13:23:47;1430.70;;;999.90;;
15616;SDS011;7908;51.688;7.130;2023-09-30T13:26:29;1444.23;;;999.90;;
15616;SDS011;7908;51.688;7.130;2023-09-30T13:29:13;1420.43;;;999.90;;
15616;SDS011;7908;51.688;7.130;2023-09-30T13:31:54;1453.27;;;999.90;;
15616;SDS011;7908;51.688;7.130;2023-09-30T13:34:32;1445.47;;;999.90;;
15616;SDS011;7908;51.688;7.130;2023-09-30T13:37:22;1418.83;;;999.90;;
15616;SDS011;7908;51.688;7.130;2023-09-30T13:40:01;1410.03;;;999.90;;
15616;SDS011;7908;51.688;7.130;2023-09-30T13:42:49;1409.90;;;999.90;;
15616;SDS011;7908;51.688;7.130;2023-09-30T13:45:21;1421.73;;;999.90;;
15616;SDS011;7908;51.688;7.130;2023-09-30T13:47:58;1419.13;;;999.90;;
15616;SDS011;7908;51.688;7.130;2023-09-30T13:50:34;1419.87;;;999.90;;
15616;SDS011;7908;51.688;7.130;2023-09-30T13:53:08;1422.30;;;999.90;;
15616;SDS011;7908;51.688;7.130;2023-09-30T13:55:46;1412.07;;;999.90;;
15616;SDS011;7908;51.688;7.130;2023-09-30T13:58:20;1420.43;;;999.90;;
15616;SDS011;7908;51.688;7.130;2023-09-30T14:00:50;1433.80;;;999.90;;
15616;SDS011;7908;51.688;7.130;2023-09-30T14:03:23;1418.20;;;999.90;;
15616;SDS011;7908;51.688;7.130;2023-09-30T14:05:55;1423.33;;;999.90;;
15616;SDS011;7908;51.688;7.130;2023-09-30T14:08:28;1412.13;;;999.90;;
15616;SDS011;7908;51.688;7.130;2023-09-30T14:11:01;816.83;;;727.63;;
15616;SDS011;7908;51.688;7.130;2023-09-30T14:13:41;842.80;;;750.67;;
15616;SDS011;7908;51.688;7.130;2023-09-30T14:16:13;906.53;;;804.77;;
15616;SDS011;7908;51.688;7.130;2023-09-30T14:18:51;767.60;;;683.20;;
15616;SDS011;7908;51.688;7.130;2023-09-30T14:21:25;740.73;;;659.23;;
15616;SDS011;7908;51.688;7.130;2023-09-30T14:23:56;716.77;;;638.67;;
15616;SDS011;7908;51.688;7.130;2023-09-30T14:26:32;1200.47;;;999.90;;
15616;SDS011;7908;51.688;7.130;2023-09-30T14:29:08;1433.43;;;999.90;;
15616;SDS011;7908;51.688;7.130;2023-09-30T14:31:44;1426.87;;;999.90;;
15616;SDS011;7908;51.688;7.130;2023-09-30T14:34:19;1445.40;;;999.90;;
15616;SDS011;7908;51.688;7.130;2023-09-30T14:36:51;1446.77;;;999.90;;
15616;SDS011;7908;51.688;7.130;2023-09-30T14:39:25;1432.07;;;999.90;;
15616;SDS011;7908;51.688;7.130;2023-09-30T14:41:58;1446.93;;;999.90;;
15616;SDS011;7908;51.688;7.130;2023-09-30T14:44:29;1443.83;;;999.90;;
15616;SDS011;7908;51.688;7.130;2023-09-30T14:47:00;1421.10;;;999.90;;